createdAt,value
2023-05-08T00:00:23.865Z,101233.34
2023-05-08T00:01:26.335Z,101233.78
2023-05-08T00:02:28.690Z,101230.19
2023-05-08T00:03:31.374Z,101236.53
2023-05-08T00:04:33.936Z,101233.97
2023-05-08T00:05:36.263Z,101228.72
2023-05-08T00:06:38.571Z,101240.56
2023-05-08T00:07:40.914Z,101238.00
2023-05-08T00:08:43.228Z,101232.50
2023-05-08T00:09:46.296Z,101232.50
2023-05-08T00:10:49.056Z,101230.84
2023-05-08T00:11:51.503Z,101237.16
2023-05-08T00:12:54.040Z,101229.38
2023-05-08T00:13:56.320Z,101226.63
2023-05-08T00:14:58.705Z,101224.06
2023-05-08T00:16:00.997Z,101226.81
2023-05-08T00:17:03.524Z,101218.78
2023-05-08T00:18:06.010Z,101223.69
2023-05-08T00:19:09.205Z,101227.25
2023-05-08T00:20:12.237Z,101223.69
2023-05-08T00:21:14.784Z,101224.72
2023-05-08T00:22:17.045Z,101219.47
2023-05-08T00:23:19.362Z,101222.22
2023-05-08T00:24:21.643Z,101223.25
2023-05-08T00:25:24.167Z,101220.72
2023-05-08T00:26:26.450Z,101225.59
2023-05-08T00:27:28.676Z,101220.94
2023-05-08T00:28:31.068Z,101222.00
2023-05-08T00:29:33.410Z,101217.56
2023-05-08T00:30:35.715Z,101220.31
2023-05-08T00:31:37.993Z,101217.78
2023-05-08T00:32:40.893Z,101217.78
2023-05-08T00:33:43.139Z,101215.25
2023-05-08T00:34:45.636Z,101212.69
2023-05-08T00:35:47.956Z,101213.78
2023-05-08T00:36:50.246Z,101220.09
2023-05-08T00:37:53.036Z,101215.66
2023-05-08T00:38:55.280Z,101219.47
2023-05-08T00:39:57.536Z,101211.88
2023-05-08T00:41:01.978Z,101221.59
2023-05-08T00:42:04.250Z,101214.41
2023-05-08T00:43:06.872Z,101218.22
2023-05-08T00:44:09.150Z,101218.66
2023-05-08T00:45:11.741Z,101224.13
2023-05-08T00:46:14.260Z,101223.50
2023-05-08T00:47:16.673Z,101219.91
2023-05-08T00:48:19.339Z,101228.16
2023-05-08T00:49:21.837Z,101227.72
2023-05-08T00:50:24.129Z,101216.53
2023-05-08T00:51:28.124Z,101222.25
2023-05-08T00:52:33.270Z,101222.47
2023-05-08T00:53:38.775Z,101218.03
2023-05-08T00:54:41.042Z,101219.94
2023-05-08T00:55:43.829Z,101223.72
2023-05-08T00:56:47.241Z,101225.66
2023-05-08T00:57:49.706Z,101222.03
2023-05-08T00:58:52.448Z,101221.41
2023-05-08T00:59:55.998Z,101214.22
2023-05-08T01:00:59.648Z,101222.69
2023-05-08T01:02:02.427Z,101219.09
2023-05-08T01:03:04.901Z,101212.97
2023-05-08T01:04:07.781Z,101218.47
2023-05-08T01:05:10.534Z,101214.03
2023-05-08T01:06:13.082Z,101217.81
2023-05-08T01:07:16.651Z,101216.13
2023-05-08T01:08:18.937Z,101210.84
2023-05-08T01:09:21.252Z,101216.56
2023-05-08T01:10:23.483Z,101214.03
2023-05-08T01:11:39.465Z,101214.88
2023-05-08T01:12:53.169Z,101212.56
2023-05-08T01:14:34.422Z,101219.94
2023-05-08T01:15:47.915Z,101222.06
2023-05-08T01:17:02.290Z,101219.53
2023-05-08T01:18:27.936Z,101222.47
2023-05-08T01:20:07.203Z,101218.06
2023-05-08T01:21:29.923Z,101221.19
2023-05-08T01:22:53.500Z,101228.59
2023-05-08T01:24:23.407Z,101221.63
2023-05-08T01:26:03.391Z,101219.94
2023-05-08T01:27:30.639Z,101223.13
2023-05-08T01:29:09.465Z,101227.97
2023-05-08T01:30:55.741Z,101235.75
2023-05-08T01:32:16.622Z,101221.44
2023-05-08T01:33:44.425Z,101234.28
2023-05-08T01:34:54.687Z,101240.84
2023-05-08T01:36:04.024Z,101243.78
2023-05-08T01:37:15.836Z,101247.59
2023-05-08T01:38:40.208Z,101240.63
2023-05-08T01:39:57.543Z,101243.56
2023-05-08T01:41:08.915Z,101237.44
2023-05-08T01:42:23.560Z,101233.00
2023-05-08T01:43:56.277Z,101231.31
2023-05-08T01:45:03.088Z,101234.28
2023-05-08T01:46:13.884Z,101237.22
2023-05-08T01:47:19.199Z,101235.53
2023-05-08T01:48:29.893Z,101231.31
2023-05-08T01:49:40.249Z,101234.91
2023-05-08T01:50:48.753Z,101237.84
2023-05-08T01:51:59.254Z,101236.19
2023-05-08T01:53:08.551Z,101234.69
2023-05-08T01:54:20.121Z,101241.00
2023-05-08T01:55:30.822Z,101241.22
2023-05-08T01:56:34.254Z,101240.56
2023-05-08T01:57:41.918Z,101241.63
2023-05-08T01:58:45.783Z,101235.53
2023-05-08T01:59:52.212Z,101233.81
2023-05-08T02:00:55.370Z,101235.72
2023-05-08T02:02:01.214Z,101228.75
2023-05-08T02:03:06.952Z,101231.69
2023-05-08T02:04:11.534Z,101231.91
2023-05-08T02:05:15.772Z,101229.38
2023-05-08T02:06:22.125Z,101229.38
2023-05-08T02:07:25.484Z,101228.53
2023-05-08T02:08:32.553Z,101231.47
2023-05-08T02:09:35.136Z,101236.94
2023-05-08T02:10:38.140Z,101227.06
2023-05-08T02:11:42.890Z,101237.16
2023-05-08T02:12:48.190Z,101228.31
2023-05-08T02:13:52.330Z,101240.31
2023-05-08T02:14:57.004Z,101243.06
2023-05-08T02:16:00.991Z,101240.94
2023-05-08T02:17:04.757Z,101236.09
2023-05-08T02:18:09.198Z,101241.78
2023-05-08T02:19:12.437Z,101248.13
2023-05-08T02:20:16.485Z,101232.91
2023-05-08T02:21:20.077Z,101242.19
2023-05-08T02:22:26.899Z,101244.31
2023-05-08T02:23:30.145Z,101243.44
2023-05-08T02:24:36.253Z,101241.78
2023-05-08T02:25:39.826Z,101239.03
2023-05-08T02:26:46.351Z,101250.00
2023-05-08T02:27:50.821Z,101238.19
2023-05-08T02:28:56.657Z,101245.78
2023-05-08T02:30:00.796Z,101252.94
2023-05-08T02:31:03.647Z,101255.03
2023-05-08T02:32:09.011Z,101248.69
2023-05-08T02:33:14.298Z,101241.56
2023-05-08T02:34:17.752Z,101248.06
2023-05-08T02:35:20.829Z,101254.59
2023-05-08T02:36:24.561Z,101248.28
2023-05-08T02:37:28.130Z,101246.59
2023-05-08T02:38:32.007Z,101249.53
2023-05-08T02:39:35.945Z,101252.50
2023-05-08T02:40:46.338Z,101245.31
2023-05-08T02:41:49.177Z,101253.53
2023-05-08T02:42:52.854Z,101250.16
2023-05-08T02:43:55.493Z,101252.88
2023-05-08T02:44:58.895Z,101251.41
2023-05-08T02:46:18.659Z,101247.81
2023-05-08T02:47:42.531Z,101248.03
2023-05-08T02:48:57.637Z,101250.13
2023-05-08T02:50:47.739Z,101246.53
2023-05-08T02:52:04.632Z,101249.69
2023-05-08T02:53:11.668Z,101247.97
2023-05-08T02:54:22.157Z,101251.78
2023-05-08T02:55:53.837Z,101246.50
2023-05-08T02:57:18.843Z,101248.81
2023-05-08T02:58:35.064Z,101249.03
2023-05-08T02:59:47.306Z,101251.91
2023-05-08T03:01:06.767Z,101254.84
2023-05-08T03:02:40.688Z,101256.09
2023-05-08T03:03:46.891Z,101251.06
2023-05-08T03:04:59.667Z,101256.53
2023-05-08T03:06:03.652Z,101263.03
2023-05-08T03:07:06.663Z,101264.09
2023-05-08T03:08:16.378Z,101259.66
2023-05-08T03:09:21.880Z,101260.72
2023-05-08T03:10:29.925Z,101268.28
2023-05-08T03:11:40.884Z,101264.88
2023-05-08T03:12:47.117Z,101264.06
2023-05-08T03:13:59.101Z,101265.09
2023-05-08T03:15:07.800Z,101260.66
2023-05-08T03:16:16.616Z,101253.91
2023-05-08T03:17:21.590Z,101254.09
2023-05-08T03:18:28.814Z,101252.41
2023-05-08T03:19:36.220Z,101254.31
2023-05-08T03:20:45.351Z,101263.56
2023-05-08T03:21:49.423Z,101255.56
2023-05-08T03:22:55.012Z,101255.56
2023-05-08T03:24:01.045Z,101259.13
2023-05-08T03:25:06.644Z,101250.09
2023-05-08T03:26:11.660Z,101254.91
2023-05-08T03:27:16.122Z,101254.91
2023-05-08T03:28:20.065Z,101255.56
2023-05-08T03:29:24.762Z,101252.81
2023-05-08T03:30:28.315Z,101253.88
2023-05-08T03:31:37.774Z,101247.56
2023-05-08T03:32:41.443Z,101256.59
2023-05-08T03:33:45.093Z,101254.06
2023-05-08T03:34:49.499Z,101256.81
2023-05-08T03:35:53.910Z,101248.59
2023-05-08T03:36:56.574Z,101252.38
2023-05-08T03:37:59.485Z,101250.50
2023-05-08T03:39:02.617Z,101258.72
2023-05-08T03:40:06.882Z,101257.84
2023-05-08T03:41:09.523Z,101265.22
2023-05-08T03:42:21.473Z,101257.00
2023-05-08T03:43:25.207Z,101260.78
2023-05-08T03:44:29.999Z,101257.22
2023-05-08T03:45:35.979Z,101256.34
2023-05-08T03:46:39.115Z,101264.56
2023-05-08T03:47:42.469Z,101260.78
2023-05-08T03:48:48.281Z,101259.97
2023-05-08T03:49:51.444Z,101260.78
2023-05-08T03:50:53.996Z,101257.41
2023-05-08T03:51:57.268Z,101262.03
2023-05-08T03:52:59.774Z,101257.41
2023-05-08T03:54:02.411Z,101268.19
2023-05-08T03:55:06.592Z,101265.44
2023-05-08T03:56:08.950Z,101262.88
2023-05-08T03:57:11.420Z,101261.00
2023-05-08T03:58:40.990Z,101267.31
2023-05-08T04:00:05.380Z,101276.38
2023-05-08T04:01:21.414Z,101271.09
2023-05-08T04:02:57.890Z,101274.69
2023-05-08T04:04:06.361Z,101275.72
2023-05-08T04:05:25.090Z,101274.69
2023-05-08T04:06:48.693Z,101264.56
2023-05-08T04:08:15.855Z,101276.38
2023-05-08T04:09:31.532Z,101278.47
2023-05-08T04:10:43.833Z,101274.69
2023-05-08T04:12:22.492Z,101275.72
2023-05-08T04:13:31.745Z,101272.16
2023-05-08T04:14:40.176Z,101272.16
2023-05-08T04:15:52.226Z,101278.47
2023-05-08T04:17:02.902Z,101276.78
2023-05-08T04:18:09.335Z,101284.78
2023-05-08T04:19:24.117Z,101285.66
2023-05-08T04:20:29.537Z,101281.88
2023-05-08T04:21:35.581Z,101272.59
2023-05-08T04:22:40.731Z,101277.03
2023-05-08T04:23:44.850Z,101284.41
2023-05-08T04:24:49.429Z,101284.00
2023-05-08T04:25:53.898Z,101285.69
2023-05-08T04:26:57.431Z,101279.16
2023-05-08T04:28:02.756Z,101283.19
2023-05-08T04:29:07.540Z,101278.56
2023-05-08T04:30:10.827Z,101283.66
2023-05-08T04:31:17.322Z,101284.94
2023-05-08T04:32:21.984Z,101283.69
2023-05-08T04:33:24.570Z,101293.19
2023-05-08T04:34:29.018Z,101295.50
2023-05-08T04:35:32.840Z,101293.88
2023-05-08T04:36:35.651Z,101291.63
2023-05-08T04:37:41.164Z,101299.88
2023-05-08T04:38:43.860Z,101300.09
2023-05-08T04:39:51.283Z,101301.84
2023-05-08T04:40:53.664Z,101296.56
2023-05-08T04:42:02.784Z,101299.53
2023-05-08T04:43:07.025Z,101302.13
2023-05-08T04:44:09.460Z,101302.13
2023-05-08T04:45:12.400Z,101305.72
2023-05-08T04:46:15.088Z,101300.28
2023-05-08T04:47:17.782Z,101309.38
2023-05-08T04:48:21.621Z,101304.75
2023-05-08T04:49:24.067Z,101303.91
2023-05-08T04:50:26.628Z,101303.75
2023-05-08T04:51:29.651Z,101307.31
2023-05-08T04:52:32.068Z,101308.63
2023-05-08T04:53:34.485Z,101303.97
2023-05-08T04:54:37.062Z,101312.00
2023-05-08T04:55:39.736Z,101304.41
2023-05-08T04:56:42.067Z,101308.63
2023-05-08T04:57:44.755Z,101307.56
2023-05-08T04:58:47.455Z,101307.16
2023-05-08T04:59:49.838Z,101304.41
2023-05-08T05:00:52.140Z,101313.28
2023-05-08T05:01:58.368Z,101310.28
2023-05-08T05:03:00.866Z,101312.22
2023-05-08T05:04:03.789Z,101307.13
2023-05-08T05:05:06.681Z,101313.22
2023-05-08T05:06:09.632Z,101306.41
2023-05-08T05:07:12.066Z,101303.44
2023-05-08T05:08:14.404Z,101302.97
2023-05-08T05:09:16.789Z,101304.63
2023-05-08T05:10:19.280Z,101309.69
2023-05-08T05:11:21.983Z,101303.91
2023-05-08T05:12:25.762Z,101309.78
2023-05-08T05:13:28.762Z,101311.22
2023-05-08T05:14:31.869Z,101308.19
2023-05-08T05:15:34.152Z,101310.47
2023-05-08T05:16:37.537Z,101310.19
2023-05-08T05:17:40.290Z,101304.22
2023-05-08T05:18:42.937Z,101306.69
2023-05-08T05:19:45.302Z,101306.41
2023-05-08T05:20:49.273Z,101311.66
2023-05-08T05:21:51.643Z,101309.47
2023-05-08T05:22:58.097Z,101303.47
2023-05-08T05:24:00.984Z,101310.34
2023-05-08T05:25:04.298Z,101305.41
2023-05-08T05:26:06.658Z,101313.13
2023-05-08T05:27:09.086Z,101311.78
2023-05-08T05:28:12.298Z,101309.13
2023-05-08T05:29:14.767Z,101307.75
2023-05-08T05:30:17.150Z,101307.81
2023-05-08T05:31:19.729Z,101318.06
2023-05-08T05:32:22.761Z,101312.00
2023-05-08T05:33:25.293Z,101310.59
2023-05-08T05:34:27.685Z,101312.81
2023-05-08T05:35:30.184Z,101318.63
2023-05-08T05:36:32.896Z,101317.25
2023-05-08T05:37:35.352Z,101317.97
2023-05-08T05:38:37.835Z,101322.34
2023-05-08T05:39:40.815Z,101317.56
2023-05-08T05:40:43.191Z,101316.59
2023-05-08T05:41:45.648Z,101307.63
2023-05-08T05:42:50.382Z,101313.63
2023-05-08T05:43:53.562Z,101310.75
2023-05-08T05:44:57.076Z,101304.03
2023-05-08T05:46:10.040Z,101312.81
2023-05-08T05:47:13.881Z,101317.13
2023-05-08T05:48:17.139Z,101313.66
2023-05-08T05:49:20.783Z,101312.47
2023-05-08T05:50:23.636Z,101303.44
2023-05-08T05:51:27.967Z,101309.94
2023-05-08T05:52:30.775Z,101307.88
2023-05-08T05:53:34.646Z,101307.78
2023-05-08T05:54:38.784Z,101314.84
2023-05-08T05:55:41.559Z,101316.91
2023-05-08T05:56:43.863Z,101308.72
2023-05-08T05:57:46.311Z,101311.63
2023-05-08T05:58:48.541Z,101315.31
2023-05-08T05:59:52.274Z,101312.41
2023-05-08T06:00:55.499Z,101316.97
2023-05-08T06:01:57.840Z,101314.06
2023-05-08T06:03:00.461Z,101317.31
2023-05-08T06:04:03.046Z,101317.41
2023-05-08T06:05:05.771Z,101311.72
2023-05-08T06:06:08.185Z,101315.19
2023-05-08T06:07:10.706Z,101313.34
2023-05-08T06:08:13.716Z,101309.59
2023-05-08T06:09:16.155Z,101313.91
2023-05-08T06:10:19.292Z,101306.28
2023-05-08T06:11:22.835Z,101310.31
2023-05-08T06:12:25.690Z,101311.56
2023-05-08T06:13:28.399Z,101307.81
2023-05-08T06:14:31.516Z,101312.13
2023-05-08T06:15:34.330Z,101317.25
2023-05-08T06:16:36.821Z,101319.63
2023-05-08T06:17:39.166Z,101321.97
2023-05-08T06:18:41.814Z,101319.88
2023-05-08T06:19:50.510Z,101319.44
2023-05-08T06:20:58.178Z,101310.69
2023-05-08T06:22:00.603Z,101307.50
2023-05-08T06:23:03.048Z,101309.00
2023-05-08T06:24:06.877Z,101307.94
2023-05-08T06:25:10.137Z,101310.28
2023-05-08T06:26:12.585Z,101319.00
2023-05-08T06:27:15.180Z,101313.28
2023-05-08T06:28:17.546Z,101317.28
2023-05-08T06:29:19.881Z,101318.22
2023-05-08T06:30:22.556Z,101309.34
2023-05-08T06:31:27.254Z,101323.63
2023-05-08T06:32:29.692Z,101308.44
2023-05-08T06:33:32.058Z,101313.53
2023-05-08T06:34:35.301Z,101311.97
2023-05-08T06:35:37.714Z,101319.84
2023-05-08T06:36:40.208Z,101319.00
2023-05-08T06:37:42.582Z,101326.88
2023-05-08T06:38:44.953Z,101316.63
2023-05-08T06:39:48.967Z,101313.38
2023-05-08T06:40:54.150Z,101316.78
2023-05-08T06:41:56.486Z,101315.47
2023-05-08T06:43:04.464Z,101331.94
2023-05-08T06:44:06.697Z,101324.47
2023-05-08T06:45:10.317Z,101321.19
2023-05-08T06:46:13.182Z,101331.00
2023-05-08T06:47:15.859Z,101326.31
2023-05-08T06:48:18.157Z,101326.91
2023-05-08T06:49:20.489Z,101328.88
2023-05-08T06:50:22.797Z,101321.41
2023-05-08T06:51:25.239Z,101315.03
2023-05-08T06:52:27.522Z,101320.06
2023-05-08T06:53:29.785Z,101324.53
2023-05-08T06:54:32.049Z,101332.34
2023-05-08T06:55:34.385Z,101315.69
2023-05-08T06:56:36.763Z,101330.75
2023-05-08T06:57:39.158Z,101316.25
2023-05-08T06:58:41.462Z,101316.00
2023-05-08T06:59:43.923Z,101315.50
2023-05-08T07:00:46.353Z,101314.94
2023-05-08T07:01:48.716Z,101312.19
2023-05-08T07:02:52.216Z,101301.38
2023-05-08T07:03:54.508Z,101304.44
2023-05-08T07:04:56.793Z,101296.09
2023-05-08T07:05:59.530Z,101305.88
2023-05-08T07:07:01.871Z,101301.47
2023-05-08T07:08:04.282Z,101311.50
2023-05-08T07:09:06.684Z,101305.66
2023-05-08T07:10:09.514Z,101306.53
2023-05-08T07:11:13.606Z,101304.63
2023-05-08T07:12:16.902Z,101306.88
2023-05-08T07:13:22.254Z,101303.53
2023-05-08T07:14:24.618Z,101299.94
2023-05-08T07:15:27.253Z,101306.66
2023-05-08T07:16:29.667Z,101306.38
2023-05-08T07:17:32.929Z,101308.31
2023-05-08T07:18:35.253Z,101307.22
2023-05-08T07:19:38.703Z,101313.06
2023-05-08T07:20:41.028Z,101298.88
2023-05-08T07:21:43.374Z,101301.38
2023-05-08T07:22:45.705Z,101311.72
2023-05-08T07:23:49.274Z,101305.03
2023-05-08T07:24:51.610Z,101318.97
2023-05-08T07:25:54.788Z,101311.16
2023-05-08T07:26:57.480Z,101311.44
2023-05-08T07:28:01.369Z,101310.88
2023-05-08T07:29:04.007Z,101318.72
2023-05-08T07:30:07.046Z,101312.28
2023-05-08T07:31:09.426Z,101320.13
2023-05-08T07:32:11.843Z,101312.00
2023-05-08T07:33:14.254Z,101312.88
2023-05-08T07:34:16.528Z,101304.78
2023-05-08T07:35:18.825Z,101311.19
2023-05-08T07:36:21.170Z,101310.09
2023-05-08T07:37:23.864Z,101309.22
2023-05-08T07:38:26.180Z,101310.38
2023-05-08T07:39:28.413Z,101313.41
2023-05-08T07:40:30.853Z,101325.72
2023-05-08T07:41:33.326Z,101310.63
2023-05-08T07:42:42.723Z,101317.91
2023-05-08T07:43:45.457Z,101307.31
2023-05-08T07:44:54.524Z,101312.91
2023-05-08T07:45:58.554Z,101315.13
2023-05-08T07:47:01.154Z,101308.16
2023-05-08T07:48:03.674Z,101315.97
2023-05-08T07:49:06.545Z,101311.25
2023-05-08T07:50:09.077Z,101303.13
2023-05-08T07:51:14.271Z,101300.88
2023-05-08T07:52:16.891Z,101295.88
2023-05-08T07:53:19.271Z,101308.47
2023-05-08T07:54:21.592Z,101309.00
2023-05-08T07:55:23.989Z,101305.69
2023-05-08T07:56:27.383Z,101302.03
2023-05-08T07:57:37.022Z,101310.16
2023-05-08T07:58:39.477Z,101307.91
2023-05-08T07:59:41.807Z,101301.75
2023-05-08T08:00:45.858Z,101302.88
2023-05-08T08:01:48.246Z,101302.88
2023-05-08T08:02:51.703Z,101302.31
2023-05-08T08:03:54.785Z,101308.72
2023-05-08T08:04:57.292Z,101306.50
2023-05-08T08:05:59.957Z,101302.59
2023-05-08T08:07:02.254Z,101305.09
2023-05-08T08:08:05.682Z,101298.13
2023-05-08T08:09:08.231Z,101313.47
2023-05-08T08:10:11.837Z,101304.81
2023-05-08T08:11:14.169Z,101304.53
2023-05-08T08:12:16.636Z,101310.69
2023-05-08T08:13:19.019Z,101309.00
2023-05-08T08:14:23.963Z,101291.44
2023-05-08T08:15:26.304Z,101303.41
2023-05-08T08:16:28.595Z,101296.16
2023-05-08T08:17:31.199Z,101317.09
2023-05-08T08:18:37.084Z,101297.84
2023-05-08T08:19:39.426Z,101300.34
2023-05-08T08:20:41.752Z,101295.31
2023-05-08T08:21:44.282Z,101297.84
2023-05-08T08:22:46.595Z,101309.28
2023-05-08T08:23:48.907Z,101308.47
2023-05-08T08:24:52.476Z,101296.16
2023-05-08T08:25:58.303Z,101296.72
2023-05-08T08:27:00.708Z,101292.81
2023-05-08T08:28:03.149Z,101293.66
2023-05-08T08:29:05.498Z,101312.34
2023-05-08T08:30:16.991Z,101302.88
2023-05-08T08:31:20.349Z,101297.00
2023-05-08T08:32:22.799Z,101298.41
2023-05-08T08:33:25.114Z,101306.50
2023-05-08T08:34:28.321Z,101287.50
2023-05-08T08:35:30.673Z,101290.84
2023-05-08T08:36:33.105Z,101288.06
2023-05-08T08:37:35.620Z,101297.25
2023-05-08T08:38:38.295Z,101292.22
2023-05-08T08:39:44.907Z,101287.75
2023-05-08T08:40:47.271Z,101295.28
2023-05-08T08:41:49.620Z,101307.56
2023-05-08T08:42:52.116Z,101301.41
2023-05-08T08:43:55.372Z,101293.59
2023-05-08T08:44:57.773Z,101292.72
2023-05-08T08:46:10.306Z,101291.34
2023-05-08T08:47:14.145Z,101310.63
2023-05-08T08:48:17.196Z,101310.88
2023-05-08T08:49:26.026Z,101294.97
2023-05-08T08:50:33.197Z,101296.38
2023-05-08T08:51:50.460Z,101300.56
2023-05-08T08:53:10.589Z,101296.09
2023-05-08T08:54:14.395Z,101315.34
2023-05-08T08:55:18.877Z,101296.38
2023-05-08T08:56:23.868Z,101293.28
2023-05-08T08:57:28.835Z,101298.59
2023-05-08T08:58:39.269Z,101294.38
2023-05-08T08:59:43.406Z,101293.28
2023-05-08T09:00:47.720Z,101287.41
2023-05-08T09:01:55.236Z,101302.75
2023-05-08T09:02:58.136Z,101285.41
2023-05-08T09:04:01.302Z,101294.38
2023-05-08T09:05:03.859Z,101280.97
2023-05-08T09:06:06.889Z,101283.78
2023-05-08T09:07:10.685Z,101285.41
2023-05-08T09:08:14.298Z,101286.81
2023-05-08T09:09:16.739Z,101280.38
2023-05-08T09:10:19.094Z,101289.03
2023-05-08T09:11:21.727Z,101289.84
2023-05-08T09:12:25.671Z,101278.16
2023-05-08T09:13:29.706Z,101279.53
2023-05-08T09:14:32.367Z,101280.34
2023-05-08T09:15:34.712Z,101284.84
2023-05-08T09:16:37.266Z,101289.31
2023-05-08T09:17:39.596Z,101285.38
2023-05-08T09:18:41.878Z,101281.19
2023-05-08T09:19:45.157Z,101281.19
2023-05-08T09:20:48.167Z,101278.97
2023-05-08T09:21:51.410Z,101287.06
2023-05-08T09:22:54.850Z,101282.59
2023-05-08T09:23:59.166Z,101277.00
2023-05-08T09:25:02.465Z,101283.16
2023-05-08T09:26:04.813Z,101286.78
2023-05-08T09:27:21.740Z,101285.13
2023-05-08T09:28:27.037Z,101275.59
2023-05-08T09:29:29.383Z,101274.19
2023-05-08T09:30:31.740Z,101281.16
2023-05-08T09:31:40.021Z,101274.47
2023-05-08T09:32:44.472Z,101275.03
2023-05-08T09:33:46.858Z,101276.97
2023-05-08T09:34:53.786Z,101282.56
2023-05-08T09:35:57.597Z,101268.59
2023-05-08T09:37:05.859Z,101278.38
2023-05-08T09:38:08.144Z,101273.06
2023-05-08T09:39:14.308Z,101268.88
2023-05-08T09:40:18.941Z,101275.56
2023-05-08T09:41:22.078Z,101269.66
2023-05-08T09:42:26.377Z,101284.75
2023-05-08T09:43:29.051Z,101262.41
2023-05-08T09:44:43.960Z,101262.94
2023-05-08T09:45:46.379Z,101281.09
2023-05-08T09:46:51.080Z,101265.16
2023-05-08T09:47:53.401Z,101283.59
2023-05-08T09:48:57.692Z,101266.84
2023-05-08T09:50:04.768Z,101262.38
2023-05-08T09:51:07.402Z,101258.69
2023-05-08T09:52:15.993Z,101272.09
2023-05-08T09:53:18.671Z,101261.47
2023-05-08T09:54:21.171Z,101286.91
2023-05-08T09:55:23.493Z,101265.16
2023-05-08T09:56:39.751Z,101265.66
2023-05-08T09:57:59.232Z,101255.59
2023-05-08T09:59:06.821Z,101267.09
2023-05-08T10:00:11.501Z,101255.63
2023-05-08T10:01:37.581Z,101266.28
2023-05-08T10:02:42.286Z,101262.38
2023-05-08T10:03:49.237Z,101269.38
2023-05-08T10:04:51.704Z,101264.63
2023-05-08T10:05:54.030Z,101257.38
2023-05-08T10:06:59.863Z,101257.41
2023-05-08T10:08:22.777Z,101255.19
2023-05-08T10:09:26.149Z,101258.28
2023-05-08T10:10:31.109Z,101256.31
2023-05-08T10:11:35.118Z,101259.94
2023-05-08T10:12:38.201Z,101260.78
2023-05-08T10:13:40.931Z,101256.31
2023-05-08T10:14:46.204Z,101256.88
2023-05-08T10:15:54.632Z,101261.88
2023-05-08T10:17:00.165Z,101256.84
2023-05-08T10:18:06.539Z,101255.44
2023-05-08T10:19:16.533Z,101259.31
2023-05-08T10:20:21.633Z,101261.22
2023-05-08T10:21:27.173Z,101248.09
2023-05-08T10:22:33.812Z,101252.81
2023-05-08T10:23:38.022Z,101256.44
2023-05-08T10:24:41.769Z,101251.06
2023-05-08T10:25:47.282Z,101250.50
2023-05-08T10:27:06.983Z,101248.81
2023-05-08T10:28:16.150Z,101251.28
2023-05-08T10:29:25.221Z,101243.97
2023-05-08T10:30:28.378Z,101256.22
2023-05-08T10:31:36.728Z,101254.81
2023-05-08T10:32:44.410Z,101248.09
2023-05-08T10:33:54.998Z,101242.78
2023-05-08T10:34:59.996Z,101240.25
2023-05-08T10:36:02.385Z,101248.06
2023-05-08T10:37:06.314Z,101244.66
2023-05-08T10:38:10.107Z,101254.16
2023-05-08T10:39:14.744Z,101247.72
2023-05-08T10:40:18.906Z,101252.50
2023-05-08T10:41:23.453Z,101241.31
2023-05-08T10:42:27.736Z,101248.28
2023-05-08T10:43:33.974Z,101233.69
2023-05-08T10:44:38.773Z,101232.28
2023-05-08T10:45:41.260Z,101238.13
2023-05-08T10:46:52.047Z,101231.91
2023-05-08T10:48:12.683Z,101230.50
2023-05-08T10:49:34.357Z,101222.97
2023-05-08T10:51:06.914Z,101224.34
2023-05-08T10:52:30.430Z,101227.34
2023-05-08T10:53:42.713Z,101227.66
2023-05-08T10:55:04.601Z,101225.72
2023-05-08T10:56:07.453Z,101225.09
2023-05-08T10:57:11.811Z,101222.00
2023-05-08T10:58:35.200Z,101231.53
2023-05-08T10:59:38.160Z,101210.81
2023-05-08T11:00:52.176Z,101218.09
2023-05-08T11:02:04.673Z,101220.88
2023-05-08T11:03:16.915Z,101218.91
2023-05-08T11:04:28.890Z,101214.16
2023-05-08T11:05:31.305Z,101208.88
2023-05-08T11:06:53.161Z,101218.91
2023-05-08T11:07:56.346Z,101214.97
2023-05-08T11:09:00.463Z,101224.25
2023-05-08T11:10:14.669Z,101216.41
2023-05-08T11:11:24.978Z,101225.94
2023-05-08T11:12:28.833Z,101219.50
2023-05-08T11:13:35.196Z,101226.22
2023-05-08T11:14:42.572Z,101220.63
2023-05-08T11:15:51.095Z,101212.25
2023-05-08T11:17:02.138Z,101203.03
2023-05-08T11:18:11.803Z,101213.59
2023-05-08T11:19:19.063Z,101210.28
2023-05-08T11:20:39.301Z,101211.94
2023-05-08T11:22:11.074Z,101209.13
2023-05-08T11:23:30.204Z,101201.91
2023-05-08T11:24:41.355Z,101202.41
2023-05-08T11:25:44.645Z,101202.72
2023-05-08T11:26:49.813Z,101220.63
2023-05-08T11:28:09.809Z,101204.75
2023-05-08T11:29:17.967Z,101210.91
2023-05-08T11:30:32.572Z,101210.09
2023-05-08T11:31:51.226Z,101213.13
2023-05-08T11:33:06.241Z,101204.75
2023-05-08T11:34:44.278Z,101204.44
2023-05-08T11:36:25.303Z,101203.91
2023-05-08T11:37:29.484Z,101214.78
2023-05-08T11:38:31.982Z,101194.69
2023-05-08T11:39:34.245Z,101197.47
2023-05-08T11:40:59.823Z,101198.59
2023-05-08T11:42:30.066Z,101197.78
2023-05-08T11:43:38.589Z,101207.59
2023-05-08T11:44:40.974Z,101192.75
2023-05-08T11:45:43.424Z,101188.84
2023-05-08T11:46:56.221Z,101196.69
2023-05-08T11:48:02.089Z,101197.81
2023-05-08T11:49:04.478Z,101200.31
2023-05-08T11:50:08.161Z,101190.25
2023-05-08T11:51:10.615Z,101182.41
2023-05-08T11:52:12.972Z,101188.53
2023-05-08T11:53:15.308Z,101188.00
2023-05-08T11:54:20.631Z,101188.53
2023-05-08T11:55:23.010Z,101179.00
2023-05-08T11:56:25.293Z,101181.50
2023-05-08T11:57:31.114Z,101189.09
2023-05-08T11:58:33.502Z,101186.28
2023-05-08T11:59:36.993Z,101180.38
2023-05-08T12:00:46.284Z,101181.22
2023-05-08T12:02:06.818Z,101191.28
2023-05-08T12:03:14.958Z,101186.75
2023-05-08T12:04:17.738Z,101183.69
2023-05-08T12:05:27.363Z,101193.44
2023-05-08T12:06:32.213Z,101178.31
2023-05-08T12:07:46.905Z,101184.16
2023-05-08T12:08:49.364Z,101189.44
2023-05-08T12:09:51.795Z,101176.00
2023-05-08T12:10:56.978Z,101177.06
2023-05-08T12:11:59.355Z,101189.03
2023-05-08T12:13:01.710Z,101191.56
2023-05-08T12:14:04.899Z,101178.38
2023-05-08T12:15:12.137Z,101166.06
2023-05-08T12:16:14.403Z,101167.44
2023-05-08T12:17:19.979Z,101171.59
2023-05-08T12:18:23.632Z,101179.94
2023-05-08T12:19:43.673Z,101175.72
2023-05-08T12:20:46.538Z,101175.72
2023-05-08T12:21:49.375Z,101166.69
2023-05-08T12:22:53.292Z,101160.50
2023-05-08T12:23:59.075Z,101164.16
2023-05-08T12:25:04.242Z,101165.53
2023-05-08T12:26:08.493Z,101162.44
2023-05-08T12:27:13.448Z,101168.28
2023-05-08T12:28:15.948Z,101165.16
2023-05-08T12:29:20.906Z,101171.91
2023-05-08T12:30:23.308Z,101168.50
2023-05-08T12:31:25.849Z,101175.75
2023-05-08T12:32:29.204Z,101171.53
2023-05-08T12:33:33.108Z,101167.28
2023-05-08T12:34:36.215Z,101166.16
2023-05-08T12:35:40.044Z,101167.53